Time;durP1;ratioP1;P1;durP2;ratioP2;P2;SDS_P1;SDS_P2;PMS_P1;PMS_P2;Temp;Humidity;BMP_temperature;BMP_pressure;BME280_temperature;BME280_humidity;BME280_pressure;Samples;Min_cycle;Max_cycle;Signal;HPM_P1;HPM_P2
2022/12/13 00:00:18;;;;;;;;;;;;;;;-1.50;100.00;101316.66;5096118;28;20119;-74
2022/12/13 00:02:46;;;;;;;;;;;;;;;-1.52;100.00;101309.78;5077719;28;19913;-74
2022/12/13 00:05:11;;;;;;;;;;;;;;;-1.52;100.00;101309.78;5096713;28;19916;-75
2022/12/13 00:07:37;;;;;;;;;;;;;;;-1.53;100.00;101308.03;5087667;28;20149;-75
2022/12/13 00:10:03;;;;;;;;;;;;;;;-1.55;100.00;101310.59;5096666;28;19988;-74
2022/12/13 00:12:28;;;;;;;;;;;;;;;-1.56;100.00;101309.72;5099766;28;19927;-74
2022/12/13 00:14:53;;;;;;;;;;;;;;;-1.57;100.00;101307.13;5080004;28;19920;-73
2022/12/13 00:17:19;;;;;;;;;;;;;;;-1.58;100.00;101308.84;5079736;28;19920;-73
2022/12/13 00:19:45;;;;;;;;;;;;;;;-1.59;100.00;101307.09;5079193;28;19942;-73
2022/12/13 00:22:10;;;;;;;;;;;;;;;-1.59;100.00;101303.66;5080228;28;19920;-73
2022/12/13 00:24:36;;;;;;;;;;;;;;;-1.61;100.00;101293.38;5092254;28;19935;-73
2022/12/13 00:27:01;;;;;;;;;;;;;;;-1.62;100.00;101291.66;5100699;28;19912;-73
2022/12/13 00:29:27;;;;;;;;;;;;;;;-1.63;100.00;101300.19;5084083;28;20274;-73
2022/12/13 00:31:52;;;;;;;;;;;;;;;-1.64;100.00;101297.59;5086972;28;19916;-73
2022/12/13 00:34:18;;;;;;;;;;;;;;;-1.65;100.00;101299.31;5096609;28;19939;-73
2022/12/13 00:36:44;;;;;;;;;;;;;;;-1.64;100.00;101297.59;5089356;28;19912;-73
2022/12/13 00:39:11;;;;;;;;;;;;;;;-1.65;100.00;101301.00;5092240;28;19920;-73
2022/12/13 00:41:36;;;;;;;;;;;;;;;-1.66;100.00;101300.13;5079808;28;19963;-73
2022/12/13 00:44:02;;;;;;;;;;;;;;;-1.66;100.00;101294.13;5081548;28;19924;-73
2022/12/13 00:46:28;;;;;;;;;;;;;;;-1.68;100.00;101288.97;5080088;28;20239;-73
2022/12/13 00:48:55;;;;;;;;;;;;;;;-1.68;100.00;101280.41;5083269;28;20208;-73
2022/12/13 00:51:20;;;;;;;;;;;;;;;-1.69;100.00;101283.78;5081611;28;19927;-73
2022/12/13 00:53:46;;;;;;;;;;;;;;;-1.69;100.00;101273.53;5080728;28;20208;-73
2022/12/13 00:56:12;;;;;;;;;;;;;;;-1.70;100.00;101274.38;5099899;28;19943;-73
2022/12/13 00:58:38;;;;;;;;;;;;;;;-1.72;100.00;101276.91;5099840;28;19956;-73
2022/12/13 01:01:05;;;;;;;;;;;;;;;-1.72;100.00;101276.06;5081482;28;19951;-73
2022/12/13 01:03:31;;;;;;;;;;;;;;;-1.73;100.00;101272.59;5089201;28;20262;-73
2022/12/13 01:05:56;;;;;;;;;;;;;;;-1.74;100.00;101276.88;5083592;28;19949;-73
2022/12/13 01:08:22;;;;;;;;;;;;;;;-1.75;100.00;101274.28;5079417;28;19924;-73
2022/12/13 01:10:47;;;;;;;;;;;;;;;-1.76;100.00;101268.31;5094143;28;19924;-73
2022/12/13 01:13:13;;;;;;;;;;;;;;;-1.77;100.00;101271.69;5097336;28;19980;-73
2022/12/13 01:15:45;;;;;;;;;;;;;;;-1.77;100.00;101276.84;5087071;28;19913;-73
2022/12/13 01:18:11;;;;;;;;;;;;;;;-1.78;100.00;101280.25;5079454;28;19920;-73
2022/12/13 01:20:36;;;;;;;;;;;;;;;-1.79;100.00;101268.25;5089110;28;19983;-73
2022/12/13 01:23:02;;;;;;;;;;;;;;;-1.79;100.00;101267.38;5089037;28;19995;-73
2022/12/13 01:25:27;;;;;;;;;;;;;;;-1.81;100.00;101262.22;5082092;28;19924;-73
2022/12/13 01:27:52;;;;;;;;;;;;;;;-1.82;100.00;101265.66;5083141;28;20266;-73
2022/12/13 01:30:17;;;;;;;;;;;;;;;-1.80;100.00;101273.34;5114877;28;19920;-73
2022/12/13 01:32:43;;;;;;;;;;;;;;;-1.82;100.00;101265.66;5119743;28;19915;-73
2022/12/13 01:35:08;;;;;;;;;;;;;;;-1.82;100.00;101267.31;5108331;28;20205;-73
2022/12/13 01:37:35;;;;;;;;;;;;;;;-1.83;100.00;101263.91;5098868;28;20097;-73
2022/12/13 01:40:01;;;;;;;;;;;;;;;-1.83;100.00;101260.47;5096145;28;20184;-73
2022/12/13 01:42:26;;;;;;;;;;;;;;;-1.83;100.00;101257.91;5078778;28;19969;-73
2022/12/13 01:44:54;;;;;;;;;;;;;;;-1.84;100.00;101264.72;5079212;28;20246;-73
2022/12/13 01:47:25;;;;;;;;;;;;;;;-1.86;100.00;101258.69;5079125;28;20146;-73
2022/12/13 01:49:51;;;;;;;;;;;;;;;-1.85;100.00;101257.03;5077636;28;19923;-73
2022/12/13 01:52:16;;;;;;;;;;;;;;;-1.86;100.00;101263.84;5078989;28;19935;-73
2022/12/13 01:54:45;;;;;;;;;;;;;;;-1.86;100.00;101262.97;5078548;28;20165;-73
2022/12/13 01:57:11;;;;;;;;;;;;;;;-1.87;100.00;101264.69;5079506;28;20208;-73
2022/12/13 01:59:38;;;;;;;;;;;;;;;-1.88;100.00;101262.94;5097507;28;19974;-73
2022/12/13 02:05:14;;;;;;;;;;;;;;;-1.89;100.00;101268.94;5026701;28;20022;-73
2022/12/13 02:07:42;;;;;;;;;;;;;;;-1.89;100.00;101261.25;5091354;28;19920;-73
2022/12/13 02:10:07;;;;;;;;;;;;;;;-1.89;100.00;101260.34;5100328;28;19965;-73
2022/12/13 02:12:33;;;;;;;;;;;;;;;-1.90;100.00;101261.22;5089055;28;19924;-73
2022/12/13 02:15:00;;;;;;;;;;;;;;;-1.90;100.00;101263.78;5081138;28;19912;-73
2022/12/13 02:17:38;;;;;;;;;;;;;;;-1.91;100.00;101257.78;5090685;28;19981;-73
2022/12/13 02:20:19;;;;;;;;;;;;;;;-1.92;100.00;101256.03;5101338;28;20107;-73
2022/12/13 02:23:01;;;;;;;;;;;;;;;-1.93;100.00;101254.28;5100280;28;19920;-73
2022/12/13 02:25:29;;;;;;;;;;;;;;;-1.93;100.00;101244.03;5088291;28;19948;-73
2022/12/13 02:28:20;;;;;;;;;;;;;;;-1.94;100.00;101248.31;5091362;28;19927;-73
2022/12/13 02:30:50;;;;;;;;;;;;;;;-1.94;100.00;101244.88;5104838;28;20115;-73
2022/12/13 02:33:31;;;;;;;;;;;;;;;-1.95;100.00;101244.03;5092146;28;19927;-73
2022/12/13 02:36:03;;;;;;;;;;;;;;;-1.96;100.00;101244.84;5101024;28;19954;-73
2022/12/13 02:38:35;;;;;;;;;;;;;;;-1.96;100.00;101239.72;5098629;28;19919;-73
2022/12/13 02:41:14;;;;;;;;;;;;;;;-1.96;100.00;101238.88;5099606;28;20115;-73
2022/12/13 02:44:00;;;;;;;;;;;;;;;-1.97;100.00;101240.53;5092904;28;20134;-73
2022/12/13 02:46:28;;;;;;;;;;;;;;;-1.97;100.00;101243.13;5095704;28;20002;-73
2022/12/13 02:48:55;;;;;;;;;;;;;;;-1.99;100.00;101239.66;5092874;28;20006;-73
2022/12/13 02:51:21;;;;;;;;;;;;;;;-1.99;100.00;101239.66;5099694;28;19991;-73
2022/12/13 02:53:47;;;;;;;;;;;;;;;-1.99;100.00;101238.81;5089351;28;19947;-73
2022/12/13 02:56:12;;;;;;;;;;;;;;;-2.00;100.00;101237.94;5095368;28;19927;-73
2022/12/13 02:58:48;;;;;;;;;;;;;;;-2.00;100.00;101239.63;5089456;28;19920;-73
2022/12/13 03:01:32;;;;;;;;;;;;;;;-2.01;100.00;101237.91;5108612;28;19912;-73
2022/12/13 03:04:00;;;;;;;;;;;;;;;-2.02;100.00;101237.06;5089398;28;19951;-73
2022/12/13 03:06:28;;;;;;;;;;;;;;;-2.02;100.00;101234.50;5079892;28;19927;-73
2022/12/13 03:09:09;;;;;;;;;;;;;;;-2.02;100.00;101238.75;5087556;28;20103;-73
2022/12/13 03:14:22;;;;;;;;;;;;;;;-2.01;100.00;101240.47;5098302;28;19955;-73
2022/12/13 03:16:48;;;;;;;;;;;;;;;-2.01;100.00;101235.34;5098857;28;20224;-73
2022/12/13 03:19:13;;;;;;;;;;;;;;;-2.02;100.00;101236.16;5090973;28;19924;-73
2022/12/13 03:21:40;;;;;;;;;;;;;;;-2.04;100.00;101236.16;5079729;28;19924;-73
2022/12/13 03:24:06;;;;;;;;;;;;;;;-2.04;100.00;101241.28;5085545;28;19920;-73
2022/12/13 03:26:31;;;;;;;;;;;;;;;-2.05;100.00;101243.84;5091290;28;19936;-73
2022/12/13 03:28:57;;;;;;;;;;;;;;;-2.06;100.00;101239.53;5081035;28;19935;-73
2022/12/13 03:31:23;;;;;;;;;;;;;;;-2.07;100.00;101241.25;5088539;28;19932;-73
2022/12/13 03:33:48;;;;;;;;;;;;;;;-2.08;100.00;101238.66;5099649;28;19948;-74
2022/12/13 03:36:14;;;;;;;;;;;;;;;-2.09;100.00;101235.22;5079941;28;19928;-73
2022/12/13 03:38:39;;;;;;;;;;;;;;;-2.10;100.00;101236.03;5079560;28;19920;-73
2022/12/13 03:41:07;;;;;;;;;;;;;;;-2.12;100.00;101232.59;5095075;28;20223;-72
2022/12/13 03:43:32;;;;;;;;;;;;;;;-2.13;100.00;101234.31;5099193;28;19957;-72
2022/12/13 03:45:57;;;;;;;;;;;;;;;-2.14;100.00;101227.44;5087819;28;20196;-72
2022/12/13 03:48:23;;;;;;;;;;;;;;;-2.14;100.00;101231.72;5083732;28;20142;-72
2022/12/13 03:50:49;;;;;;;;;;;;;;;-2.15;100.00;101232.53;5096356;28;20432;-72
2022/12/13 03:53:14;;;;;;;;;;;;;;;-2.16;100.00;101231.69;5091038;28;19912;-72
2022/12/13 03:55:39;;;;;;;;;;;;;;;-2.18;100.00;101238.50;5104236;28;19973;-72
2022/12/13 03:58:05;;;;;;;;;;;;;;;-2.18;100.00;101227.38;5097624;28;19931;-72
2022/12/13 04:00:30;;;;;;;;;;;;;;;-2.20;100.00;101237.59;5117398;28;19922;-72
2022/12/13 04:02:55;;;;;;;;;;;;;;;-2.21;100.00;101228.16;5124693;28;19949;-72
2022/12/13 04:05:21;;;;;;;;;;;;;;;-2.22;100.00;101238.38;5124207;28;19927;-72
2022/12/13 04:07:46;;;;;;;;;;;;;;;-2.23;100.00;101234.97;5124142;28;19991;-72
2022/12/13 04:10:11;;;;;;;;;;;;;;;-2.23;100.00;101240.09;5118127;28;20194;-72
2022/12/13 04:15:20;;;;;;;;;;;;;;;-2.25;100.00;101225.53;5103598;28;20223;-72
2022/12/13 04:17:45;;;;;;;;;;;;;;;-2.28;100.00;101226.31;5103622;28;19912;-72
2022/12/13 04:20:11;;;;;;;;;;;;;;;-2.28;100.00;101226.31;5103495;28;20227;-72
2022/12/13 04:22:36;;;;;;;;;;;;;;;-2.29;100.00;101224.59;5096025;28;19923;-72
2022/12/13 04:25:02;;;;;;;;;;;;;;;-2.30;100.00;101225.44;5083339;28;19931;-72
2022/12/13 04:27:27;;;;;;;;;;;;;;;-2.30;100.00;101216.88;5099619;28;19958;-72
2022/12/13 04:29:53;;;;;;;;;;;;;;;-2.30;100.00;101216.88;5104413;28;19919;-72
2022/12/13 04:32:18;;;;;;;;;;;;;;;-2.32;100.00;101214.28;5097760;28;20018;-72
2022/12/13 04:34:43;;;;;;;;;;;;;;;-2.33;100.00;101217.66;5101629;28;20211;-72
2022/12/13 04:37:08;;;;;;;;;;;;;;;-2.33;100.00;101209.97;5101184;28;20178;-72
2022/12/13 04:39:34;;;;;;;;;;;;;;;-2.35;100.00;101212.53;5103058;28;20207;-72
2022/12/13 04:41:59;;;;;;;;;;;;;;;-2.36;100.00;101212.50;5095127;28;19998;-72
2022/12/13 04:44:24;;;;;;;;;;;;;;;-2.37;100.00;101216.75;5102787;28;19966;-72
2022/12/13 04:46:49;;;;;;;;;;;;;;;-2.37;100.00;101221.88;5091976;28;20119;-72
2022/12/13 04:49:15;;;;;;;;;;;;;;;-2.38;100.00;101222.72;5101059;28;19924;-72
2022/12/13 04:51:40;;;;;;;;;;;;;;;-2.39;100.00;101217.56;5098742;28;20002;-72
2022/12/13 04:54:06;;;;;;;;;;;;;;;-2.40;100.00;101203.00;5083101;28;19912;-72
2022/12/13 04:56:32;;;;;;;;;;;;;;;-2.41;100.00;101198.72;5094923;28;20203;-72
2022/12/13 04:58:57;;;;;;;;;;;;;;;-2.41;100.00;101198.72;5090121;28;19936;-72
2022/12/13 05:01:23;;;;;;;;;;;;;;;-2.43;100.00;101202.97;5093656;28;20226;-72
2022/12/13 05:03:48;;;;;;;;;;;;;;;-2.44;100.00;101202.06;5101743;28;19920;-72
2022/12/13 05:06:13;;;;;;;;;;;;;;;-2.43;100.00;101208.09;5090516;28;19962;-72
2022/12/13 05:08:39;;;;;;;;;;;;;;;-2.45;100.00;101210.63;5097443;28;20100;-72
2022/12/13 05:11:06;;;;;;;;;;;;;;;-2.45;100.00;101209.78;5102594;28;20313;-72
2022/12/13 05:13:31;;;;;;;;;;;;;;;-2.46;100.00;101213.16;5088798;28;19908;-72
2022/12/13 05:15:58;;;;;;;;;;;;;;;-2.47;100.00;101217.44;5090584;28;20223;-72
2022/12/13 05:18:23;;;;;;;;;;;;;;;-2.47;100.00;101213.97;5094704;28;19975;-72
2022/12/13 05:20:50;;;;;;;;;;;;;;;-2.48;100.00;101212.25;5101546;28;19924;-72
2022/12/13 05:23:16;;;;;;;;;;;;;;;-2.49;100.00;101207.97;5093568;28;20135;-72
2022/12/13 05:25:41;;;;;;;;;;;;;;;-2.51;100.00;101208.81;5090159;28;19920;-72
2022/12/13 05:28:06;;;;;;;;;;;;;;;-2.52;100.00;101209.63;5095968;28;19926;-72
2022/12/13 05:30:31;;;;;;;;;;;;;;;-2.52;100.00;101207.06;5104818;28;19928;-72
2022/12/13 05:32:57;;;;;;;;;;;;;;;-2.52;100.00;101208.78;5099466;28;19923;-72
2022/12/13 05:35:23;;;;;;;;;;;;;;;-2.53;100.00;101209.59;5080857;28;20139;-72
2022/12/13 05:37:48;;;;;;;;;;;;;;;-2.54;100.00;101211.31;5081927;28;20179;-72
2022/12/13 05:40:13;;;;;;;;;;;;;;;-2.55;100.00;101204.47;5099790;28;19956;-72
2022/12/13 05:42:38;;;;;;;;;;;;;;;-2.55;100.00;101206.16;5083046;28;19913;-72
2022/12/13 05:45:05;;;;;;;;;;;;;;;-2.56;100.00;101199.31;5098907;28;19924;-72
2022/12/13 05:47:30;;;;;;;;;;;;;;;-2.56;100.00;101210.41;5099599;28;19914;-72
2022/12/13 05:49:55;;;;;;;;;;;;;;;-2.56;100.00;101207.00;5096209;28;19928;-72
2022/12/13 05:52:21;;;;;;;;;;;;;;;-2.57;100.00;101197.56;5088107;28;20235;-72
2022/12/13 05:54:46;;;;;;;;;;;;;;;-2.57;100.00;101197.56;5094570;28;19959;-72
2022/12/13 05:57:12;;;;;;;;;;;;;;;-2.57;100.00;101189.88;5089262;28;20262;-72
2022/12/13 05:59:37;;;;;;;;;;;;;;;-2.58;100.00;101195.84;5101215;28;19919;-72
2022/12/13 06:02:02;;;;;;;;;;;;;;;-2.58;100.00;101183.88;5090244;28;19921;-72
2022/12/13 06:04:28;;;;;;;;;;;;;;;-2.59;100.00;101184.72;5088580;28;20165;-72
2022/12/13 06:06:53;;;;;;;;;;;;;;;-2.58;100.00;101178.75;5101059;28;20118;-72
2022/12/13 06:09:19;;;;;;;;;;;;;;;-2.57;100.00;101182.19;5094529;28;19928;-72
2022/12/13 06:11:44;;;;;;;;;;;;;;;-2.58;100.00;101180.47;5081128;28;19961;-72
2022/12/13 06:14:09;;;;;;;;;;;;;;;-2.57;100.00;101187.31;5084002;28;19985;-72
2022/12/13 06:16:34;;;;;;;;;;;;;;;-2.57;100.00;101182.19;5088895;28;19924;-72
2022/12/13 06:19:00;;;;;;;;;;;;;;;-2.58;100.00;101186.44;5098578;28;19966;-72
2022/12/13 06:21:25;;;;;;;;;;;;;;;-2.57;100.00;101188.16;5099624;28;19959;-72
2022/12/13 06:23:50;;;;;;;;;;;;;;;-2.58;100.00;101186.44;5115297;28;19920;-72
2022/12/13 06:26:15;;;;;;;;;;;;;;;-2.57;100.00;101184.75;5091753;28;20202;-72
2022/12/13 06:28:41;;;;;;;;;;;;;;;-2.57;100.00;101189.88;5097746;28;20223;-72
2022/12/13 06:31:06;;;;;;;;;;;;;;;-2.57;100.00;101188.16;5111825;28;20056;-72
2022/12/13 06:33:35;;;;;;;;;;;;;;;-2.57;100.00;101188.16;5088682;28;19987;-72
2022/12/13 06:36:00;;;;;;;;;;;;;;;-2.57;100.00;101189.88;5099301;28;19950;-72
2022/12/13 06:38:26;;;;;;;;;;;;;;;-2.56;100.00;101197.59;5098860;28;20249;-71
2022/12/13 06:40:51;;;;;;;;;;;;;;;-2.55;100.00;101196.78;5098850;28;19941;-71
2022/12/13 06:43:17;;;;;;;;;;;;;;;-2.57;100.00;101195.84;5098088;28;19926;-72
2022/12/13 06:45:42;;;;;;;;;;;;;;;-2.57;100.00;101200.97;5086008;28;20068;-72
2022/12/13 06:48:08;;;;;;;;;;;;;;;-2.58;100.00;101199.28;5098326;28;19943;-72
2022/12/13 06:50:33;;;;;;;;;;;;;;;-2.58;100.00;101201.84;5098904;28;20206;-72
2022/12/13 06:52:58;;;;;;;;;;;;;;;-2.59;100.00;101201.81;5097226;28;19920;-72
2022/12/13 06:55:24;;;;;;;;;;;;;;;-2.60;100.00;101198.38;5080793;28;19947;-72
2022/12/13 06:57:49;;;;;;;;;;;;;;;-2.61;100.00;101196.63;5091737;28;19952;-71
2022/12/13 07:00:14;;;;;;;;;;;;;;;-2.62;100.00;101197.50;5095708;28;19920;-71
2022/12/13 07:02:40;;;;;;;;;;;;;;;-2.63;100.00;101195.75;5081992;28;19924;-71
2022/12/13 07:05:05;;;;;;;;;;;;;;;-2.63;100.00;101194.91;5080193;28;20200;-71
2022/12/13 07:07:31;;;;;;;;;;;;;;;-2.64;100.00;101193.16;5095838;28;19935;-72
2022/12/13 07:09:56;;;;;;;;;;;;;;;-2.65;100.00;101197.44;5100608;28;19928;-72
2022/12/13 07:12:22;;;;;;;;;;;;;;;-2.66;100.00;101192.25;5087383;28;19924;-72
2022/12/13 07:14:47;;;;;;;;;;;;;;;-2.67;100.00;101191.41;5080009;28;19980;-72
2022/12/13 07:17:12;;;;;;;;;;;;;;;-2.67;100.00;101193.09;5090018;28;20215;-72
2022/12/13 07:19:38;;;;;;;;;;;;;;;-2.68;100.00;101192.22;5092275;28;19932;-71
2022/12/13 07:22:06;;;;;;;;;;;;;;;-2.69;100.00;101198.22;5088620;28;19976;-72
2022/12/13 07:24:33;;;;;;;;;;;;;;;-2.70;100.00;101204.16;5115700;28;19942;-71
2022/12/13 07:26:58;;;;;;;;;;;;;;;-2.70;100.00;101199.03;5093702;28;20176;-71
2022/12/13 07:29:23;;;;;;;;;;;;;;;-2.71;100.00;101194.72;5099945;28;19942;-71
2022/12/13 07:31:50;;;;;;;;;;;;;;;-2.72;100.00;101201.56;5097256;28;20404;-71
2022/12/13 07:34:16;;;;;;;;;;;;;;;-2.71;100.00;101202.41;5107298;28;19930;-71
2022/12/13 07:36:41;;;;;;;;;;;;;;;-2.72;100.00;101208.41;5103334;28;19961;-71
2022/12/13 07:39:06;;;;;;;;;;;;;;;-2.73;100.00;101206.66;5092876;28;19916;-71
2022/12/13 07:41:32;;;;;;;;;;;;;;;-2.73;100.00;101210.09;5099505;28;19928;-71
2022/12/13 07:43:57;;;;;;;;;;;;;;;-2.73;100.00;101204.09;5088896;28;19928;-71
2022/12/13 07:46:23;;;;;;;;;;;;;;;-2.74;100.00;101210.91;5100219;28;20425;-71
2022/12/13 07:48:48;;;;;;;;;;;;;;;-2.73;100.00;101214.34;5098724;28;20273;-71
2022/12/13 07:51:13;;;;;;;;;;;;;;;-2.74;100.00;101208.34;5097070;28;19924;-71
2022/12/13 07:53:39;;;;;;;;;;;;;;;-2.74;100.00;101204.94;5098819;28;19927;-71
2022/12/13 07:56:08;;;;;;;;;;;;;;;-2.74;100.00;101202.38;5098275;28;19908;-71
2022/12/13 07:58:34;;;;;;;;;;;;;;;-2.73;100.00;101204.09;5099474;28;19921;-71
2022/12/13 08:01:00;;;;;;;;;;;;;;;-2.73;100.00;101204.97;5099535;28;19912;-71
2022/12/13 08:03:25;;;;;;;;;;;;;;;-2.73;100.00;101212.66;5099940;28;20081;-71
2022/12/13 08:06:04;;;;;;;;;;;;;;;-2.72;100.00;101222.06;5098623;28;19920;-71
2022/12/13 08:08:30;;;;;;;;;;;;;;;-2.72;100.00;101222.06;5097773;28;19919;-71
2022/12/13 08:10:59;;;;;;;;;;;;;;;-2.72;100.00;101222.06;5098624;28;19983;-71
2022/12/13 08:13:24;;;;;;;;;;;;;;;-2.71;100.00;101226.38;5098076;28;19916;-71
2022/12/13 08:15:49;;;;;;;;;;;;;;;-2.70;100.00;101230.66;5097961;28;19920;-71
2022/12/13 08:18:14;;;;;;;;;;;;;;;-2.69;100.00;101231.53;5097808;28;19927;-71
2022/12/13 08:20:40;;;;;;;;;;;;;;;-2.68;100.00;101233.25;5098377;28;19920;-71
2022/12/13 08:23:05;;;;;;;;;;;;;;;-2.67;100.00;101237.56;5094977;28;19924;-71
2022/12/13 08:25:30;;;;;;;;;;;;;;;-2.67;100.00;101237.56;5103446;28;20107;-71
2022/12/13 08:27:56;;;;;;;;;;;;;;;-2.66;100.00;101229.00;5085522;28;20213;-71
2022/12/13 08:30:21;;;;;;;;;;;;;;;-2.65;100.00;101228.19;5093168;28;19928;-71
2022/12/13 08:32:48;;;;;;;;;;;;;;;-2.65;100.00;101225.63;5099688;28;20111;-71
2022/12/13 08:35:13;;;;;;;;;;;;;;;-2.64;100.00;101227.34;5108131;28;19922;-71
2022/12/13 08:37:38;;;;;;;;;;;;;;;-2.64;100.00;101239.31;5101560;28;19913;-71
2022/12/13 08:40:05;;;;;;;;;;;;;;;-2.62;100.00;101243.66;5102209;28;19912;-71
2022/12/13 08:42:30;;;;;;;;;;;;;;;-2.61;100.00;101242.81;5101732;28;19912;-73
2022/12/13 08:44:55;;;;;;;;;;;;;;;-2.61;100.00;101240.22;5102291;28;20154;-71
2022/12/13 08:47:22;;;;;;;;;;;;;;;-2.59;100.00;101248.81;5102664;28;20335;-73
2022/12/13 08:49:47;;;;;;;;;;;;;;;-2.59;100.00;101238.56;5102656;28;19924;-71
2022/12/13 08:52:12;;;;;;;;;;;;;;;-2.58;100.00;101240.31;5102935;28;19991;-71
2022/12/13 08:54:37;;;;;;;;;;;;;;;-2.57;100.00;101238.59;5104590;28;19957;-73
2022/12/13 08:57:03;;;;;;;;;;;;;;;-2.56;100.00;101242.91;5105404;28;19920;-72
2022/12/13 08:59:28;;;;;;;;;;;;;;;-2.56;100.00;101236.06;5102593;28;19920;-72
2022/12/13 09:01:53;;;;;;;;;;;;;;;-2.55;100.00;101237.81;5102364;28;19916;-73
2022/12/13 09:04:19;;;;;;;;;;;;;;;-2.55;100.00;101232.69;5102551;28;19961;-72
2022/12/13 09:06:44;;;;;;;;;;;;;;;-2.54;100.00;101236.94;5102398;28;19951;-73
2022/12/13 09:09:10;;;;;;;;;;;;;;;-2.53;100.00;101241.25;5102595;28;20218;-73
2022/12/13 09:11:35;;;;;;;;;;;;;;;-2.52;100.00;101237.84;5102258;28;19912;-72
2022/12/13 09:14:01;;;;;;;;;;;;;;;-2.51;100.00;101236.13;5102583;28;19983;-73
2022/12/13 09:16:26;;;;;;;;;;;;;;;-2.49;100.00;101238.75;5102767;28;19920;-72
2022/12/13 09:18:51;;;;;;;;;;;;;;;-2.48;100.00;101238.78;5102037;28;19986;-71
2022/12/13 09:21:17;;;;;;;;;;;;;;;-2.46;100.00;101241.38;5102293;28;20199;-72
2022/12/13 09:23:42;;;;;;;;;;;;;;;-2.45;100.00;101232.84;5102142;28;19930;-72
2022/12/13 09:26:09;;;;;;;;;;;;;;;-2.44;100.00;101235.41;5102677;28;19920;-72
2022/12/13 09:28:35;;;;;;;;;;;;;;;-2.43;100.00;101234.59;5101578;28;20034;-72
2022/12/13 09:31:05;;;;;;;;;;;;;;;-2.42;100.00;101232.88;5102270;28;19916;-71
2022/12/13 09:33:30;;;;;;;;;;;;;;;-2.40;100.00;101236.34;5101611;28;19938;-72
2022/12/13 09:35:55;;;;;;;;;;;;;;;-2.38;100.00;101239.84;5102216;28;20223;-73
2022/12/13 09:38:21;;;;;;;;;;;;;;;-2.38;100.00;101227.84;5102194;28;20085;-73
2022/12/13 09:40:48;;;;;;;;;;;;;;;-2.35;100.00;101237.31;5101721;28;19924;-73
2022/12/13 09:43:32;;;;;;;;;;;;;;;-2.32;100.00;101235.66;5101671;28;20206;-73
2022/12/13 09:45:59;;;;;;;;;;;;;;;-2.31;100.00;101231.38;5100190;28;19920;-73
2022/12/13 09:48:24;;;;;;;;;;;;;;;-2.28;100.00;101234.00;5101877;28;19912;-73
2022/12/13 09:50:50;;;;;;;;;;;;;;;-2.26;100.00;101234.91;5101307;28;19927;-73
2022/12/13 09:53:17;;;;;;;;;;;;;;;-2.24;100.00;101225.53;5101794;28;20432;-73
2022/12/13 09:55:46;;;;;;;;;;;;;;;-2.22;100.00;101230.69;5101306;28;20111;-72
2022/12/13 09:58:25;;;;;;;;;;;;;;;-2.21;100.00;101228.16;5101628;28;20284;-72
2022/12/13 10:00:51;;;;;;;;;;;;;;;-2.19;100.00;101231.59;5101083;28;19944;-72
2022/12/13 10:03:17;;;;;;;;;;;;;;;-2.19;100.00;101228.19;5101285;28;19923;-72
2022/12/13 10:05:44;;;;;;;;;;;;;;;-2.18;100.00;101233.34;5100824;28;19908;-73
2022/12/13 10:08:15;;;;;;;;;;;;;;;-2.16;100.00;101225.69;5101087;28;20397;-73
2022/12/13 10:10:42;;;;;;;;;;;;;;;-2.16;100.00;101221.41;5100972;28;19916;-73
2022/12/13 10:13:26;;;;;;;;;;;;;;;-2.15;100.00;101219.69;5101362;28;19908;-73
2022/12/13 10:15:59;;;;;;;;;;;;;;;-2.15;100.00;101205.19;5100754;28;19916;-73
2022/12/13 10:18:35;;;;;;;;;;;;;;;-2.15;100.00;101205.19;5100952;28;19953;-73
2022/12/13 10:21:07;;;;;;;;;;;;;;;-2.13;100.00;101203.50;5101080;28;19916;-73
2022/12/13 10:23:32;;;;;;;;;;;;;;;-2.12;100.00;101202.66;5100624;28;19920;-73
2022/12/13 10:25:57;;;;;;;;;;;;;;;-2.08;100.00;101210.41;5101000;28;19926;-73
2022/12/13 10:28:25;;;;;;;;;;;;;;;-2.06;100.00;101199.31;5100775;28;19924;-73
2022/12/13 10:30:50;;;;;;;;;;;;;;;-2.05;100.00;101198.50;5100300;28;19924;-73
2022/12/13 10:33:23;;;;;;;;;;;;;;;-2.02;100.00;101198.56;5100788;28;20295;-73
2022/12/13 10:36:11;;;;;;;;;;;;;;;-2.01;100.00;101195.13;5100375;28;19916;-73
2022/12/13 10:38:38;;;;;;;;;;;;;;;-1.99;100.00;101192.59;5075398;28;19916;-73
2022/12/13 10:41:24;;;;;;;;;;;;;;;-1.96;100.00;101188.38;5100989;28;19923;-73
2022/12/13 10:44:06;;;;;;;;;;;;;;;-1.92;100.00;101181.59;5095954;28;19957;-72
2022/12/13 10:46:31;;;;;;;;;;;;;;;-1.90;100.00;101187.63;5092431;28;19908;-73
2022/12/13 10:48:56;;;;;;;;;;;;;;;-1.88;100.00;101182.50;5088692;28;19924;-73
2022/12/13 10:51:21;;;;;;;;;;;;;;;-1.86;100.00;101186.81;5089147;28;20210;-73
2022/12/13 10:53:48;;;;;;;;;;;;;;;-1.85;100.00;101170.59;5089465;28;20248;-73
2022/12/13 10:56:15;;;;;;;;;;;;;;;-1.82;100.00;101169.75;5089276;28;19923;-73
2022/12/13 10:58:45;;;;;;;;;;;;;;;-1.81;100.00;101164.66;5094203;28;19958;-73
2022/12/13 11:01:20;;;;;;;;;;;;;;;-1.78;100.00;101164.69;5089084;28;19921;-73
2022/12/13 11:03:55;;;;;;;;;;;;;;;-1.74;100.00;101165.63;5090533;28;19992;-72
2022/12/13 11:06:21;;;;;;;;;;;;;;;-1.73;100.00;101159.63;5091018;28;19916;-73
2022/12/13 11:08:46;;;;;;;;;;;;;;;-1.71;100.00;101162.22;5103376;28;19936;-73
2022/12/13 11:11:25;;;;;;;;;;;;;;;-1.68;100.00;101167.41;5114380;28;19915;-73
2022/12/13 11:13:52;;;;;;;;;;;;;;;-1.66;100.00;101166.56;5100013;28;19912;-73
2022/12/13 11:16:24;;;;;;;;;;;;;;;-1.66;100.00;101151.16;5100055;28;19923;-73
2022/12/13 11:18:54;;;;;;;;;;;;;;;-1.66;100.00;101158.00;5099724;28;19923;-73
2022/12/13 11:21:27;;;;;;;;;;;;;;;-1.64;100.00;101153.75;5099487;28;19908;-73
2022/12/13 11:23:54;;;;;;;;;;;;;;;-1.63;100.00;101145.22;5099501;28;19916;-73
2022/12/13 11:26:21;;;;;;;;;;;;;;;-1.60;100.00;101140.13;5099936;28;19916;-73
2022/12/13 11:28:46;;;;;;;;;;;;;;;-1.57;100.00;101132.47;5102086;28;19991;-73
2022/12/13 11:31:20;;;;;;;;;;;;;;;-1.59;100.00;101127.28;5112354;28;19916;-73
2022/12/13 11:34:04;;;;;;;;;;;;;;;-1.59;100.00;101123.88;5098035;28;19920;-71
2022/12/13 11:36:32;;;;;;;;;;;;;;;-1.62;100.00;101111.88;5097816;28;19916;-72
2022/12/13 11:39:16;;;;;;;;;;;;;;;-1.62;100.00;101109.28;5093710;28;19940;-72
2022/12/13 11:41:56;;;;;;;;;;;;;;;-1.62;100.00;101105.84;5088321;28;20256;-72
2022/12/13 11:44:24;;;;;;;;;;;;;;;-1.61;100.00;101098.16;5088407;28;19916;-72
2022/12/13 11:46:59;;;;;;;;;;;;;;;-1.59;100.00;101096.47;5089551;28;19924;-72
2022/12/13 11:49:29;;;;;;;;;;;;;;;-1.55;100.00;101102.50;5089863;28;20223;-73
2022/12/13 11:52:14;;;;;;;;;;;;;;;-1.54;100.00;101099.13;5094403;28;19920;-72
2022/12/13 11:54:43;;;;;;;;;;;;;;;-1.53;100.00;101087.13;5071648;28;19932;-73
2022/12/13 11:57:15;;;;;;;;;;;;;;;-1.50;100.00;101098.31;5099993;28;19961;-73
2022/12/13 11:59:43;;;;;;;;;;;;;;;-1.50;100.00;101100.88;5109638;28;19915;-73
2022/12/13 12:02:15;;;;;;;;;;;;;;;-1.50;100.00;101093.16;5105721;28;19919;-73
2022/12/13 12:04:46;;;;;;;;;;;;;;;-1.50;100.00;101103.44;5098652;28;20038;-73
2022/12/13 12:07:14;;;;;;;;;;;;;;;-1.49;100.00;101100.03;5103463;28;19987;-72
2022/12/13 12:09:49;;;;;;;;;;;;;;;-1.47;100.00;101094.94;5103309;28;20226;-72
2022/12/13 12:12:23;;;;;;;;;;;;;;;-1.45;100.00;101099.22;5103753;28;19955;-73
2022/12/13 12:14:54;;;;;;;;;;;;;;;-1.43;100.00;101082.13;5103195;28;19916;-73
2022/12/13 12:17:23;;;;;;;;;;;;;;;-1.42;100.00;101093.25;5103622;28;19965;-73
2022/12/13 12:19:50;;;;;;;;;;;;;;;-1.40;100.00;101099.28;5103345;28;19908;-73
2022/12/13 12:22:35;;;;;;;;;;;;;;;-1.41;100.00;101100.13;5103424;28;19916;-73
2022/12/13 12:25:21;;;;;;;;;;;;;;;-1.42;100.00;101099.28;5087775;28;19975;-73
2022/12/13 12:27:58;;;;;;;;;;;;;;;-1.43;100.00;101097.53;5103000;28;19961;-73
2022/12/13 12:30:32;;;;;;;;;;;;;;;-1.42;100.00;101100.97;5119112;28;19917;-73
2022/12/13 12:33:03;;;;;;;;;;;;;;;-1.41;100.00;101080.44;5087482;28;19908;-73
2022/12/13 12:35:28;;;;;;;;;;;;;;;-1.39;100.00;101077.88;5102998;28;19915;-73
2022/12/13 12:38:03;;;;;;;;;;;;;;;-1.39;100.00;101081.31;5103012;28;19916;-73